Time;durP1;ratioP1;P1;durP2;ratioP2;P2;SDS_P1;SDS_P2;PMS_P1;PMS_P2;Temp;Humidity;BMP_temperature;BMP_pressure;BME280_temperature;BME280_humidity;BME280_pressure;Samples;Min_cycle;Max_cycle;Signal;HPM_P1;HPM_P2
2023/12/22 00:00:10;;;;;;;0.60;0.60;;;;;;;5.62;100.00;95578.53;29394;256;64005;-56
2023/12/22 00:00:41;;;;;;;0.70;0.70;;;;;;;5.62;100.00;95581.22;29395;202;63009;-62
2023/12/22 00:01:15;;;;;;;0.60;0.60;;;;;;;5.64;100.00;95595.19;29395;219;63005;-58
2023/12/22 00:01:46;;;;;;;0.60;0.60;;;;;;;5.61;100.00;95604.63;29395;213;63009;-56
2023/12/22 00:02:18;;;;;;;0.60;0.60;;;;;;;5.61;100.00;95598.47;29395;215;63005;-57
2023/12/22 00:02:49;;;;;;;0.60;0.60;;;;;;;5.56;100.00;95601.22;29395;258;63009;-62
2023/12/22 00:03:21;;;;;;;0.60;0.60;;;;;;;5.55;100.00;95592.34;29395;220;63004;-59
2023/12/22 00:03:52;;;;;;;0.60;0.60;;;;;;;5.59;100.00;95595.25;29395;257;63009;-61
2023/12/22 00:04:23;;;;;;;4.40;1.17;;;;;;;5.56;100.00;95582.38;29395;215;63011;-57
2023/12/22 00:04:55;;;;;;;0.70;0.70;;;;;;;5.60;100.00;95580.72;29395;281;63027;-62
2023/12/22 00:05:27;;;;;;;0.60;0.60;;;;;;;5.61;100.00;95582.31;29394;222;64004;-57
2023/12/22 00:05:59;;;;;;;0.60;0.60;;;;;;;5.67;100.00;95575.75;29395;203;63009;-60
2023/12/22 00:06:30;;;;;;;0.60;0.60;;;;;;;5.64;100.00;95584.41;29395;281;63005;-59
2023/12/22 00:07:01;;;;;;;0.70;0.70;;;;;;;5.66;100.00;95582.25;29395;273;63009;-57
2023/12/22 00:07:32;;;;;;;0.60;0.60;;;;;;;5.64;100.00;95587.91;29395;243;63005;-59
2023/12/22 00:08:04;;;;;;;0.60;0.60;;;;;;;5.60;100.00;95580.72;29395;205;63009;-59
2023/12/22 00:08:35;;;;;;;0.60;0.60;;;;;;;5.54;100.00;95581.91;29395;273;63005;-58
2023/12/22 00:09:07;;;;;;;0.60;0.60;;;;;;;5.49;100.00;95568.53;29395;255;63009;-58
2023/12/22 00:09:38;;;;;;;0.60;0.60;;;;;;;5.45;100.00;95572.91;29395;276;63005;-63
2023/12/22 00:10:11;;;;;;;0.60;0.60;;;;;;;5.48;100.00;95577.69;29395;285;63009;-59
2023/12/22 00:10:42;;;;;;;0.60;0.60;;;;;;;5.45;100.00;95578.28;29394;222;64004;-61
2023/12/22 00:11:16;;;;;;;0.60;0.60;;;;;;;5.46;100.00;95587.94;29395;240;63009;-56
2023/12/22 00:11:52;;;;;;;0.60;0.60;;;;;;;5.46;100.00;95577.19;29395;230;63004;-65
2023/12/22 00:12:26;;;;;;;0.60;0.60;;;;;;;5.43;100.00;95585.84;29395;253;63009;-58
2023/12/22 00:12:58;;;;;;;0.60;0.60;;;;;;;5.42;100.00;95581.53;29395;211;63004;-57
2023/12/22 00:13:29;;;;;;;0.60;0.60;;;;;;;5.39;100.00;95581.03;29395;224;63008;-60
2023/12/22 00:14:00;;;;;;;0.60;0.60;;;;;;;5.42;100.00;95586.94;29395;246;63005;-58
2023/12/22 00:14:32;;;;;;;0.60;0.60;;;;;;;5.41;100.00;95577.25;29395;343;63009;-59
2023/12/22 00:15:04;;;;;;;0.60;0.60;;;;;;;5.46;100.00;95593.31;29395;207;63005;-69
2023/12/22 00:15:36;;;;;;;0.60;0.60;;;;;;;5.47;100.00;95605.69;29395;297;63009;-59
2023/12/22 00:16:07;;;;;;;0.60;0.60;;;;;;;5.59;100.00;95611.41;29394;266;64005;-64
2023/12/22 00:16:38;;;;;;;0.55;0.55;;;;;;;5.63;100.00;95590.91;29395;214;63009;-59
2023/12/22 00:17:10;;;;;;;0.60;0.60;;;;;;;5.64;100.00;95581.72;29394;263;64004;-57
2023/12/22 00:18:53;;;;;;;1.08;0.73;;;;;;;5.64;100.00;95570.97;88174;211;64005;-72
2023/12/22 00:19:27;;;;;;;0.60;0.60;;;;;;;5.64;100.00;95576.34;29394;252;64008;-59
2023/12/22 00:20:02;;;;;;;0.70;0.70;;;;;;;5.68;100.00;95574.66;29395;208;63005;-57
2023/12/22 00:20:37;;;;;;;0.60;0.60;;;;;;;5.77;100.00;95575.59;29395;273;63009;-62
2023/12/22 00:21:11;;;;;;;0.60;0.60;;;;;;;5.80;100.00;95585.78;29395;269;63011;-61
2023/12/22 00:21:43;;;;;;;0.60;0.60;;;;;;;5.80;100.00;95577.72;29395;235;63009;-62
2023/12/22 00:22:14;;;;;;;0.60;0.60;;;;;;;5.81;100.00;95581.22;29394;270;64009;-67
2023/12/22 00:22:46;;;;;;;0.60;0.60;;;;;;;5.82;100.00;95577.44;29395;236;63009;-59
2023/12/22 00:23:17;;;;;;;0.85;0.85;;;;;;;5.83;100.00;95574.44;29394;196;64009;-61
2023/12/22 00:23:49;;;;;;;0.60;0.60;;;;;;;5.83;100.00;95573.63;29395;329;63009;-67
2023/12/22 00:24:20;;;;;;;0.60;0.60;;;;;;;5.81;100.00;95565.06;29395;210;63004;-57
2023/12/22 00:24:51;;;;;;;0.98;0.98;;;;;;;5.84;100.00;95565.28;29395;236;63009;-70
2023/12/22 00:25:22;;;;;;;0.60;0.60;;;;;;;5.89;100.00;95567.13;29395;248;63004;-58
2023/12/22 00:25:54;;;;;;;1.70;1.60;;;;;;;5.93;100.00;95560.00;29395;210;63008;-59
2023/12/22 00:26:26;;;;;;;0.60;0.60;;;;;;;5.96;100.00;95562.12;29395;216;63004;-63
2023/12/22 00:26:57;;;;;;;0.60;0.60;;;;;;;5.95;100.00;95555.94;29395;246;63009;-58
2023/12/22 00:27:28;;;;;;;2.75;0.95;;;;;;;5.92;100.00;95556.53;29395;219;63009;-60
2023/12/22 00:27:59;;;;;;;0.60;0.60;;;;;;;5.92;100.00;95556.53;29395;225;63009;-64
2023/12/22 00:28:34;;;;;;;0.60;0.60;;;;;;;5.92;100.00;95548.44;29394;223;64009;-58
2023/12/22 00:29:05;;;;;;;0.60;0.60;;;;;;;5.92;100.00;95555.72;29395;238;63009;-69
2023/12/22 00:29:37;;;;;;;0.60;0.60;;;;;;;5.93;100.00;95562.72;29394;227;64005;-62
2023/12/22 00:30:10;;;;;;;0.60;0.60;;;;;;;5.93;100.00;95565.41;29395;197;63027;-61
2023/12/22 00:30:42;;;;;;;0.50;0.50;;;;;;;5.98;100.00;95560.72;29395;222;63005;-57
2023/12/22 00:31:16;;;;;;;0.60;0.60;;;;;;;6.04;100.00;95564.94;29395;196;63009;-58
2023/12/22 00:31:48;;;;;;;0.60;0.60;;;;;;;6.04;100.00;95559.56;29395;227;63004;-58
2023/12/22 00:32:19;;;;;;;4.60;3.60;;;;;;;6.03;100.00;95567.94;29395;212;63024;-64
2023/12/22 00:32:51;;;;;;;0.60;0.60;;;;;;;6.04;100.00;95554.16;29395;260;63004;-58
2023/12/22 00:33:22;;;;;;;0.60;0.60;;;;;;;6.05;100.00;95566.53;29395;236;63008;-56
2023/12/22 00:33:54;;;;;;;0.60;0.60;;;;;;;6.11;100.00;95561.88;29394;224;64008;-66
2023/12/22 00:34:25;;;;;;;0.60;0.60;;;;;;;6.13;100.00;95567.75;29395;219;63009;-56
2023/12/22 00:34:58;;;;;;;0.85;0.85;;;;;;;6.18;100.00;95572.25;29395;264;63005;-64
2023/12/22 00:35:29;;;;;;;0.60;0.60;;;;;;;6.21;100.00;95563.59;29395;249;63009;-61
2023/12/22 00:36:00;;;;;;;0.60;0.60;;;;;;;6.16;100.00;95564.47;29394;216;64005;-63
2023/12/22 00:36:31;;;;;;;0.62;0.62;;;;;;;6.20;100.00;95562.00;29395;211;63014;-65
2023/12/22 00:37:04;;;;;;;0.60;0.60;;;;;;;6.18;100.00;95569.56;29395;210;63005;-68
2023/12/22 00:37:36;;;;;;;0.50;0.50;;;;;;;6.18;100.00;95566.88;29395;274;63009;-61
2023/12/22 00:38:08;;;;;;;0.60;0.60;;;;;;;6.25;100.00;95580.72;29395;274;63014;-58
2023/12/22 00:38:39;;;;;;;0.50;0.50;;;;;;;6.23;100.00;95591.03;29395;209;63009;-57
2023/12/22 00:39:11;;;;;;;0.60;0.60;;;;;;;6.26;100.00;95582.31;29394;204;64009;-63
2023/12/22 00:39:42;;;;;;;0.60;0.60;;;;;;;6.29;100.00;95592.50;29395;215;63009;-56
2023/12/22 00:40:13;;;;;;;0.55;0.55;;;;;;;6.31;100.00;95599.19;29395;291;63004;-64
2023/12/22 00:40:46;;;;;;;0.60;0.60;;;;;;;6.36;100.00;95599.12;29395;238;63009;-62
2023/12/22 00:41:18;;;;;;;0.60;0.60;;;;;;;6.38;100.00;95606.91;29395;303;63004;-62
2023/12/22 00:41:49;;;;;;;0.60;0.60;;;;;;;6.42;100.00;95605.22;29395;217;63009;-57
2023/12/22 00:42:20;;;;;;;0.82;0.82;;;;;;;6.44;100.00;95619.19;29395;223;63005;-61
2023/12/22 00:42:51;;;;;;;0.60;0.60;;;;;;;6.39;100.00;95612.00;29395;212;63009;-58
2023/12/22 00:43:24;;;;;;;0.50;0.50;;;;;;;6.37;100.00;95616.06;29395;241;63005;-59
2023/12/22 00:43:55;;;;;;;0.60;0.60;;;;;;;6.36;100.00;95619.88;29395;365;63009;-60
2023/12/22 00:44:28;;;;;;;0.52;0.52;;;;;;;6.35;100.00;95607.50;29394;223;64009;-56
2023/12/22 00:44:59;;;;;;;0.60;0.60;;;;;;;6.34;100.00;95614.78;29395;292;63009;-58
2023/12/22 00:45:31;;;;;;;0.60;0.60;;;;;;;6.34;100.00;95619.37;29394;225;64009;-59
2023/12/22 00:46:03;;;;;;;0.60;0.60;;;;;;;6.33;100.00;95609.69;29395;252;63009;-58
2023/12/22 00:46:34;;;;;;;0.60;0.60;;;;;;;6.27;100.00;95608.97;29395;257;63004;-58
2023/12/22 00:47:05;;;;;;;0.60;0.60;;;;;;;6.28;100.00;95623.22;29395;202;63009;-59
2023/12/22 00:47:37;;;;;;;0.70;0.70;;;;;;;6.28;100.00;95617.84;29395;223;63004;-59
2023/12/22 00:48:09;;;;;;;0.60;0.60;;;;;;;6.30;100.00;95626.44;29395;207;63009;-62
2023/12/22 00:48:43;;;;;;;0.80;0.80;;;;;;;6.29;100.00;95616.75;29395;221;63004;-59
2023/12/22 00:49:14;;;;;;;0.80;0.80;;;;;;;6.28;100.00;95621.34;29395;301;63009;-58
2023/12/22 00:49:45;;;;;;;0.60;0.60;;;;;;;6.27;100.00;95632.41;29395;204;63005;-60
2023/12/22 00:50:16;;;;;;;0.60;0.60;;;;;;;6.25;100.00;95634.59;29394;221;64014;-57
2023/12/22 00:50:47;;;;;;;0.55;0.55;;;;;;;6.24;100.00;95635.69;29395;248;63005;-60
2023/12/22 00:51:19;;;;;;;0.60;0.60;;;;;;;6.23;100.00;95636.81;29395;254;63009;-59
2023/12/22 00:51:50;;;;;;;0.60;0.60;;;;;;;6.19;100.00;95641.19;29395;207;63005;-63
2023/12/22 00:52:21;;;;;;;0.60;0.60;;;;;;;6.16;100.00;95631.00;29395;226;63009;-61
2023/12/22 00:52:52;;;;;;;0.60;0.60;;;;;;;6.13;100.00;95632.41;29395;319;63005;-59
2023/12/22 00:53:24;;;;;;;0.60;0.60;;;;;;;6.13;100.00;95636.97;29395;202;63009;-63
2023/12/22 00:53:55;;;;;;;0.55;0.55;;;;;;;6.09;100.00;95633.28;29395;199;63008;-57
2023/12/22 00:54:27;;;;;;;0.60;0.60;;;;;;;6.07;100.00;95630.06;29395;223;63009;-67
2023/12/22 00:54:58;;;;;;;1.23;1.23;;;;;;;6.07;100.00;95635.47;29395;227;63004;-56
2023/12/22 00:55:30;;;;;;;0.60;0.60;;;;;;;6.04;100.00;95637.66;29394;202;64013;-58
2023/12/22 00:56:02;;;;;;;0.60;0.60;;;;;;;6.02;100.00;95628.25;29395;218;63004;-60
2023/12/22 00:56:35;;;;;;;2.75;2.55;;;;;;;6.03;100.00;95627.97;29395;227;63008;-55
2023/12/22 00:57:06;;;;;;;0.52;0.52;;;;;;;6.03;100.00;95636.03;29395;269;63005;-59
2023/12/22 00:57:37;;;;;;;0.60;0.60;;;;;;;6.01;100.00;95630.16;29395;227;63009;-70
2023/12/22 00:58:08;;;;;;;0.60;0.60;;;;;;;5.99;100.00;95626.16;29395;223;63005;-57
2023/12/22 00:58:41;;;;;;;0.60;0.60;;;;;;;5.96;100.00;95614.06;29395;224;63009;-60
2023/12/22 00:59:12;;;;;;;0.60;0.60;;;;;;;5.94;100.00;95643.19;29395;204;63009;-59
2023/12/22 00:59:47;;;;;;;0.60;0.60;;;;;;;5.93;100.00;95649.66;29395;249;63009;-57
2023/12/22 01:00:19;;;;;;;0.60;0.60;;;;;;;5.95;100.00;95639.41;29395;221;63005;-61
2023/12/22 01:00:51;;;;;;;0.88;0.88;;;;;;;5.95;100.00;95636.72;29394;204;64013;-59
2023/12/22 01:01:22;;;;;;;0.60;0.60;;;;;;;5.99;100.00;95636.91;29395;249;63004;-62
2023/12/22 01:01:53;;;;;;;0.70;0.70;;;;;;;5.99;100.00;95631.53;29395;203;63018;-57
2023/12/22 01:02:27;;;;;;;0.60;0.60;;;;;;;5.96;100.00;95632.91;29395;229;63004;-57
2023/12/22 01:02:58;;;;;;;0.70;0.70;;;;;;;5.98;100.00;95632.63;29395;210;63009;-59
2023/12/22 01:03:29;;;;;;;0.60;0.60;;;;;;;5.98;100.00;95632.63;29395;216;63004;-57
2023/12/22 01:04:01;;;;;;;0.60;0.60;;;;;;;5.95;100.00;95631.31;29395;307;63008;-59
2023/12/22 01:04:35;;;;;;;1.05;1.05;;;;;;;5.92;100.00;95636.50;29395;197;63005;-62
2023/12/22 01:05:07;;;;;;;0.60;0.60;;;;;;;5.91;100.00;95633.00;29395;197;63009;-57
2023/12/22 01:05:39;;;;;;;0.60;0.60;;;;;;;5.89;100.00;95624.41;29395;250;63005;-59
2023/12/22 01:06:11;;;;;;;0.60;0.60;;;;;;;5.88;100.00;95619.31;29394;236;64013;-59
2023/12/22 01:06:43;;;;;;;0.65;0.65;;;;;;;5.85;100.00;95626.09;29395;250;63005;-62
2023/12/22 01:07:14;;;;;;;1.33;1.33;;;;;;;5.86;100.00;95622.31;29395;255;63009;-59
2023/12/22 01:07:45;;;;;;;0.60;0.60;;;;;;;5.81;100.00;95627.75;29395;202;63005;-59
2023/12/22 01:08:16;;;;;;;0.60;0.60;;;;;;;5.78;100.00;95617.59;29395;214;63025;-56
2023/12/22 01:08:49;;;;;;;0.60;0.60;;;;;;;5.75;100.00;95639.69;29395;202;63004;-57
2023/12/22 01:09:21;;;;;;;0.60;0.60;;;;;;;5.81;100.00;95622.38;29395;266;63024;-63
2023/12/22 01:09:55;;;;;;;0.60;0.60;;;;;;;5.82;100.00;95610.53;29395;208;63004;-60
2023/12/22 01:10:27;;;;;;;0.60;0.60;;;;;;;5.84;100.00;95619.09;29395;203;63009;-63
2023/12/22 01:10:58;;;;;;;0.60;0.60;;;;;;;5.88;100.00;95616.63;29395;288;63004;-62
2023/12/22 01:11:30;;;;;;;0.60;0.60;;;;;;;5.86;100.00;95605.34;29394;269;64013;-59
2023/12/22 01:12:03;;;;;;;0.60;0.60;;;;;;;5.87;100.00;95618.53;29395;270;63005;-68
2023/12/22 01:12:35;;;;;;;0.52;0.52;;;;;;;5.90;100.00;95612.56;29395;197;63009;-60
2023/12/22 01:13:07;;;;;;;0.60;0.60;;;;;;;5.92;100.00;95602.28;29395;252;63005;-60
2023/12/22 01:13:38;;;;;;;0.60;0.60;;;;;;;5.98;100.00;95617.28;29395;306;63009;-61
2023/12/22 01:14:15;;;;;;;0.60;0.60;;;;;;;6.01;100.00;95608.59;29395;221;63005;-62
2023/12/22 01:14:46;;;;;;;0.60;0.60;;;;;;;6.01;100.00;95603.22;29395;262;63009;-60
2023/12/22 01:15:17;;;;;;;0.60;0.60;;;;;;;6.01;100.00;95607.81;29394;246;64009;-64
2023/12/22 01:15:48;;;;;;;0.60;0.60;;;;;;;5.98;100.00;95611.88;29395;207;63012;-58
2023/12/22 01:16:22;;;;;;;0.60;0.60;;;;;;;5.97;100.00;95599.53;29395;278;63004;-63
2023/12/22 01:16:56;;;;;;;0.57;0.57;;;;;;;5.93;100.00;95601.19;29395;219;63024;-62
2023/12/22 01:17:27;;;;;;;0.60;0.60;;;;;;;5.87;100.00;95605.06;29395;227;63010;-60
2023/12/22 01:17:58;;;;;;;0.80;0.80;;;;;;;5.89;100.00;95610.94;29395;242;63026;-63
2023/12/22 01:18:31;;;;;;;2.35;0.77;;;;;;;5.88;100.00;95603.97;29395;277;63009;-61
2023/12/22 01:19:02;;;;;;;0.60;0.60;;;;;;;5.91;100.00;95619.53;29395;203;63009;-56
2023/12/22 01:19:33;;;;;;;0.60;0.60;;;;;;;5.91;100.00;95608.78;29395;202;63010;-57
2023/12/22 01:20:06;;;;;;;0.70;0.70;;;;;;;5.94;100.00;95608.19;29395;261;63009;-58
2023/12/22 01:20:39;;;;;;;0.60;0.60;;;;;;;5.93;100.00;95609.28;29394;215;64009;-60
2023/12/22 01:21:11;;;;;;;0.93;0.93;;;;;;;5.96;100.00;95606.00;29395;205;63024;-59
2023/12/22 01:21:43;;;;;;;0.60;0.60;;;;;;;6.00;100.00;95596.25;29395;212;63005;-62
2023/12/22 01:22:14;;;;;;;0.60;0.60;;;;;;;6.01;100.00;95594.34;29395;214;63009;-63
2023/12/22 01:22:46;;;;;;;0.60;0.60;;;;;;;5.96;100.00;95595.22;29395;214;63004;-63
2023/12/22 01:23:17;;;;;;;0.60;0.60;;;;;;;5.95;100.00;95598.22;29395;305;63009;-59
2023/12/22 01:23:48;;;;;;;0.60;0.60;;;;;;;5.92;100.00;95599.59;29395;220;63004;-55
2023/12/22 01:24:19;;;;;;;0.57;0.57;;;;;;;5.96;100.00;95600.63;29395;246;63017;-57
2023/12/22 01:24:51;;;;;;;0.60;0.60;;;;;;;6.01;100.00;95602.44;29395;222;63010;-58
2023/12/22 01:25:23;;;;;;;0.60;0.60;;;;;;;6.04;100.00;95613.41;29395;242;63008;-60
2023/12/22 01:25:54;;;;;;;0.70;0.70;;;;;;;6.07;100.00;95611.22;29394;274;64008;-59
2023/12/22 01:26:26;;;;;;;0.60;0.60;;;;;;;6.07;100.00;95612.03;29395;274;63009;-58
2023/12/22 01:26:57;;;;;;;0.60;0.60;;;;;;;6.03;100.00;95611.81;29395;281;63005;-57
2023/12/22 01:27:28;;;;;;;0.60;0.60;;;;;;;6.02;100.00;95614.78;29395;225;63009;-64
2023/12/22 01:27:59;;;;;;;0.77;0.77;;;;;;;6.04;100.00;95613.41;29395;233;63005;-66
2023/12/22 01:28:33;;;;;;;0.70;0.70;;;;;;;6.05;100.00;95600.75;29395;209;63009;-57
2023/12/22 01:29:06;;;;;;;0.60;0.60;;;;;;;6.08;100.00;95612.81;29394;198;64005;-60
2023/12/22 01:29:38;;;;;;;0.60;0.60;;;;;;;6.07;100.00;95600.44;29395;332;63009;-60
2023/12/22 01:30:10;;;;;;;0.60;0.60;;;;;;;6.12;100.00;95603.06;29395;252;63005;-57
2023/12/22 01:30:41;;;;;;;0.60;0.60;;;;;;;6.13;100.00;95591.19;29395;225;63009;-58
2023/12/22 01:31:13;;;;;;;0.60;0.60;;;;;;;6.16;100.00;95604.06;29394;280;64009;-59
2023/12/22 01:31:44;;;;;;;0.70;0.70;;;;;;;6.16;100.00;95587.91;29395;338;63009;-58
2023/12/22 01:32:15;;;;;;;0.60;0.60;;;;;;;6.15;100.00;95602.47;29395;243;63004;-64
2023/12/22 01:32:46;;;;;;;4.20;1.70;;;;;;;6.12;100.00;95590.41;29395;226;63009;-58
2023/12/22 01:33:18;;;;;;;0.60;0.60;;;;;;;6.11;100.00;95612.22;29395;207;63009;-58
2023/12/22 01:33:49;;;;;;;0.60;0.60;;;;;;;6.12;100.00;95603.06;29395;209;63009;-59
2023/12/22 01:34:20;;;;;;;0.60;0.60;;;;;;;6.12;100.00;95603.06;29395;209;63005;-61
2023/12/22 01:34:51;;;;;;;0.60;0.60;;;;;;;6.11;100.00;95590.69;29395;203;63009;-56
2023/12/22 01:35:22;;;;;;;0.68;0.68;;;;;;;6.11;100.00;95601.47;29395;209;63005;-60
2023/12/22 01:35:53;;;;;;;0.70;0.70;;;;;;;6.14;98.28;95600.88;29395;299;63009;-58
2023/12/22 01:36:29;;;;;;;0.60;0.60;;;;;;;6.16;98.45;95599.50;29394;196;64009;-64
2023/12/22 01:37:01;;;;;;;0.60;0.60;;;;;;;6.16;98.60;95615.66;29395;238;63017;-59
2023/12/22 01:37:32;;;;;;;0.60;0.60;;;;;;;6.19;98.39;95608.88;29394;225;64009;-56
2023/12/22 01:38:05;;;;;;;0.60;0.60;;;;;;;6.18;98.08;95599.19;29395;216;63023;-57
2023/12/22 01:38:36;;;;;;;0.60;0.60;;;;;;;6.17;98.11;95621.84;29395;200;63004;-59
2023/12/22 01:39:09;;;;;;;1.25;1.25;;;;;;;6.14;97.54;95619.72;29395;245;63009;-59
2023/12/22 01:39:40;;;;;;;0.60;0.60;;;;;;;6.13;97.08;95610.06;29395;208;63004;-71
2023/12/22 01:40:11;;;;;;;0.60;0.60;;;;;;;6.14;96.49;95617.03;29395;199;63009;-55
2023/12/22 01:40:42;;;;;;;0.60;0.60;;;;;;;6.15;96.61;95618.63;29395;243;63004;-57
2023/12/22 01:41:14;;;;;;;0.60;0.60;;;;;;;6.17;96.75;95616.44;29395;212;63009;-62
2023/12/22 01:41:45;;;;;;;0.75;0.75;;;;;;;6.18;96.94;95612.66;29395;199;63005;-60
2023/12/22 01:42:16;;;;;;;0.60;0.60;;;;;;;6.17;96.35;95619.94;29395;223;63009;-59
2023/12/22 01:42:48;;;;;;;0.60;0.60;;;;;;;6.16;96.78;95620.22;29394;263;64009;-60
2023/12/22 01:43:21;;;;;;;0.68;0.68;;;;;;;6.16;94.17;95637.19;29395;235;63009;-63
2023/12/22 01:43:52;;;;;;;0.60;0.60;;;;;;;6.18;94.18;95632.31;29395;253;63005;-58
2023/12/22 01:44:24;;;;;;;0.68;0.68;;;;;;;6.20;93.73;95621.25;29395;279;63009;-56
2023/12/22 01:44:55;;;;;;;0.60;0.60;;;;;;;6.23;94.73;95609.88;29395;234;63005;-61
2023/12/22 01:45:26;;;;;;;0.60;0.60;;;;;;;6.25;94.77;95634.59;29395;246;63009;-56
2023/12/22 01:45:59;;;;;;;0.60;0.60;;;;;;;6.21;93.17;95623.66;29395;261;63007;-58
2023/12/22 01:46:33;;;;;;;0.60;0.60;;;;;;;6.21;93.94;95628.22;29395;196;63009;-62
2023/12/22 01:47:05;;;;;;;0.60;0.60;;;;;;;6.21;93.77;95620.16;29395;208;63004;-58
2023/12/22 01:47:36;;;;;;;0.60;0.60;;;;;;;6.20;93.05;95627.44;29395;226;63009;-61
2023/12/22 01:48:08;;;;;;;0.60;0.60;;;;;;;6.20;93.42;95618.56;29394;202;64008;-59
2023/12/22 01:48:40;;;;;;;0.60;0.60;;;;;;;6.22;92.85;95629.81;29395;330;63008;-58
2023/12/22 01:49:12;;;;;;;0.60;0.60;;;;;;;6.22;92.75;95624.44;29395;211;63016;-58
2023/12/22 01:49:44;;;;;;;0.60;0.60;;;;;;;6.21;93.00;95645.19;29395;210;63005;-60
2023/12/22 01:50:16;;;;;;;0.60;0.60;;;;;;;6.19;93.93;95635.81;29395;226;63005;-64
2023/12/22 01:50:48;;;;;;;0.60;0.60;;;;;;;6.19;92.93;95627.72;29395;208;63009;-57
2023/12/22 01:51:20;;;;;;;0.60;0.60;;;;;;;6.19;91.94;95641.19;29395;212;63005;-58
2023/12/22 01:51:52;;;;;;;0.60;0.60;;;;;;;6.19;91.45;95625.03;29395;238;63009;-57
2023/12/22 01:52:25;;;;;;;0.60;0.60;;;;;;;6.21;92.02;95633.63;29395;266;63005;-57
2023/12/22 01:52:57;;;;;;;0.60;0.60;;;;;;;6.18;92.03;95639.59;29395;218;63009;-57
2023/12/22 01:53:32;;;;;;;0.57;0.57;;;;;;;6.16;91.61;95633.69;29394;227;64009;-57
2023/12/22 01:54:05;;;;;;;0.60;0.60;;;;;;;6.16;90.69;95641.78;29395;233;63009;-60
2023/12/22 01:54:36;;;;;;;0.50;0.50;;;;;;;6.15;90.55;95635.59;29395;219;63004;-57
2023/12/22 01:55:10;;;;;;;0.60;0.60;;;;;;;6.10;91.41;95642.94;29395;223;63009;-67
2023/12/22 01:55:42;;;;;;;0.60;0.60;;;;;;;6.09;91.28;95635.97;29395;234;63004;-63
2023/12/22 01:56:15;;;;;;;0.60;0.60;;;;;;;6.13;91.21;95642.38;29395;213;63008;-58
2023/12/22 01:56:46;;;;;;;0.60;0.60;;;;;;;6.14;90.93;95635.88;29395;239;63005;-64
2023/12/22 01:57:19;;;;;;;0.60;0.60;;;;;;;6.15;90.43;95643.66;29395;221;63009;-57
2023/12/22 01:57:51;;;;;;;0.60;0.60;;;;;;;6.15;91.04;95634.78;29395;207;63005;-57
2023/12/22 01:58:23;;;;;;;0.60;0.60;;;;;;;6.14;90.83;95628.59;29395;228;63009;-60
2023/12/22 01:59:00;;;;;;;0.50;0.50;;;;;;;6.14;91.03;95630.50;29394;202;64009;-57
2023/12/22 01:59:34;;;;;;;0.60;0.60;;;;;;;6.16;90.69;95641.78;29395;214;63009;-63
2023/12/22 02:00:08;;;;;;;0.60;0.60;;;;;;;6.14;90.71;95639.38;29395;231;63005;-55
2023/12/22 02:00:40;;;;;;;0.60;0.60;;;;;;;6.18;90.57;95644.97;29395;205;63009;-58
2023/12/22 02:01:12;;;;;;;0.60;0.60;;;;;;;6.16;91.26;95652.56;29395;207;63004;-60
2023/12/22 02:01:45;;;;;;;0.57;0.57;;;;;;;6.17;90.45;95648.75;29395;223;63009;-62
2023/12/22 02:02:17;;;;;;;0.60;0.60;;;;;;;6.21;89.99;95650.56;29395;301;63004;-57
2023/12/22 02:02:53;;;;;;;0.60;0.60;;;;;;;6.18;89.35;95658.44;29395;203;63009;-61
2023/12/22 02:03:24;;;;;;;0.60;0.60;;;;;;;6.21;89.57;95655.16;29395;291;63004;-60
2023/12/22 02:03:56;;;;;;;0.60;0.60;;;;;;;6.21;89.62;95660.56;29394;214;64014;-57
2023/12/22 02:04:30;;;;;;;0.60;0.60;;;;;;;6.20;89.90;95632.03;29395;225;63005;-58
2023/12/22 02:05:03;;;;;;;0.60;0.60;;;;;;;6.16;89.29;95641.78;29395;230;63009;-60
2023/12/22 02:05:34;;;;;;;0.60;0.60;;;;;;;6.19;89.51;95651.97;29395;212;63005;-60
2023/12/22 02:06:06;;;;;;;0.60;0.60;;;;;;;6.15;89.89;95649.06;29395;212;63014;-56
2023/12/22 02:06:37;;;;;;;0.50;0.50;;;;;;;6.14;90.64;95654.75;29395;218;63005;-56
2023/12/22 02:07:10;;;;;;;0.70;0.70;;;;;;;6.11;90.98;95653.44;29395;279;63009;-54
2023/12/22 02:07:43;;;;;;;0.50;0.50;;;;;;;6.11;91.06;95649.94;29395;246;63005;-60
2023/12/22 02:08:19;;;;;;;0.60;0.60;;;;;;;6.09;90.53;95652.12;29395;220;63009;-57
2023/12/22 02:08:50;;;;;;;0.55;0.55;;;;;;;6.11;90.56;95658.00;29395;270;63004;-61
2023/12/22 02:09:21;;;;;;;0.60;0.60;;;;;;;6.11;90.21;95655.31;29394;202;64013;-58
2023/12/22 02:09:52;;;;;;;0.60;0.60;;;;;;;6.10;90.19;95653.72;29395;203;63004;-57
2023/12/22 02:10:24;;;;;;;0.60;0.60;;;;;;;6.09;90.68;95641.34;29394;292;64013;-55
2023/12/22 02:10:56;;;;;;;0.60;0.60;;;;;;;6.09;90.00;95641.34;29395;215;63004;-66
2023/12/22 02:11:27;;;;;;;0.60;0.60;;;;;;;6.08;90.30;95635.16;29395;240;63009;-55
2023/12/22 02:11:58;;;;;;;0.73;0.73;;;;;;;6.10;90.50;95640.25;29395;223;63005;-60
2023/12/22 02:12:30;;;;;;;0.50;0.50;;;;;;;6.10;90.43;95643.75;29395;230;63009;-61
2023/12/22 02:13:01;;;;;;;0.60;0.60;;;;;;;6.11;90.75;95628.41;29395;212;63005;-60
2023/12/22 02:13:33;;;;;;;0.60;0.60;;;;;;;6.09;90.51;95641.34;29395;238;63018;-55
2023/12/22 02:14:08;;;;;;;0.60;0.60;;;;;;;6.08;91.87;95642.44;29395;207;63011;-56
2023/12/22 02:14:39;;;;;;;0.55;0.55;;;;;;;6.07;90.84;95628.19;29395;291;63009;-57
2023/12/22 02:15:11;;;;;;;0.60;0.60;;;;;;;6.12;90.41;95656.91;29395;273;63016;-58
2023/12/22 02:15:43;;;;;;;0.60;0.60;;;;;;;6.12;89.26;95638.88;29394;249;64013;-61
2023/12/22 02:16:50;;;;;;;0.60;0.60;;;;;;;6.16;89.86;95644.47;29395;197;63004;-58
2023/12/22 02:17:51;;;;;;;0.60;0.60;;;;;;;6.14;90.26;95639.38;29395;202;63008;-56
2023/12/22 02:18:31;;;;;;;0.60;0.60;;;;;;;6.08;89.98;95642.44;29395;208;63015;-61
2023/12/22 02:19:34;;;;;;;0.60;0.60;;;;;;;6.10;89.43;95632.19;29395;224;63009;-54
2023/12/22 02:20:08;;;;;;;2.92;0.90;;;;;;;6.12;89.07;95646.16;29395;239;63005;-67
2023/12/22 02:20:40;;;;;;;0.60;0.60;;;;;;;6.12;88.36;95633.47;29395;204;63009;-55
2023/12/22 02:21:11;;;;;;;0.60;0.60;;;;;;;6.13;88.48;95642.38;29394;267;64009;-71
2023/12/22 02:22:21;;;;;;;0.60;0.60;;;;;;;6.15;88.56;95646.38;29395;354;63009;-61
2023/12/22 02:22:53;;;;;;;0.60;0.60;;;;;;;6.15;89.04;95662.53;29394;220;64009;-61
2023/12/22 02:23:24;;;;;;;0.60;0.60;;;;;;;6.15;88.84;95661.72;29395;212;63009;-56
2023/12/22 02:23:55;;;;;;;0.50;0.50;;;;;;;6.13;89.04;95653.12;29395;295;63009;-61
2023/12/22 02:24:28;;;;;;;0.60;0.60;;;;;;;6.13;89.43;95653.12;29395;261;63009;-62
2023/12/22 02:24:59;;;;;;;0.60;0.60;;;;;;;6.10;89.99;95664.50;29395;247;63004;-62
2023/12/22 02:25:30;;;;;;;0.50;0.50;;;;;;;6.07;89.19;95662.38;29395;270;63008;-55
2023/12/22 02:26:28;;;;;;;0.60;0.60;;;;;;;6.03;89.22;95671.06;29395;226;63005;-57
2023/12/22 02:27:34;;;;;;;0.60;0.60;;;;;;;6.01;89.67;95659.78;29395;258;63027;-55
2023/12/22 02:28:12;;;;;;;0.60;0.60;;;;;;;6.04;89.09;95655.69;29394;288;64009;-57
2023/12/22 02:28:47;;;;;;;0.60;0.60;;;;;;;5.99;88.19;95659.25;29395;261;63009;-65
2023/12/22 02:29:19;;;;;;;0.60;0.60;;;;;;;6.04;87.81;95659.19;29395;279;63005;-61
2023/12/22 02:30:01;;;;;;;0.60;0.60;;;;;;;6.00;88.12;95655.47;29395;233;63009;-56
2023/12/22 02:30:39;;;;;;;0.60;0.60;;;;;;;5.99;88.79;95653.06;29395;258;63018;-61
2023/12/22 02:31:20;;;;;;;0.60;0.60;;;;;;;6.03;87.48;95659.47;29395;257;63025;-58
2023/12/22 02:31:55;;;;;;;0.60;0.60;;;;;;;5.98;87.81;95668.44;29394;200;64009;-57
2023/12/22 02:32:31;;;;;;;0.60;0.60;;;;;;;5.97;88.21;95664.13;29395;312;63008;-61
2023/12/22 02:33:05;;;;;;;0.60;0.60;;;;;;;6.03;87.66;95654.09;29395;224;63004;-57
2023/12/22 02:33:39;;;;;;;0.80;0.80;;;;;;;6.06;87.03;95658.91;29395;284;63009;-60
2023/12/22 02:34:18;;;;;;;0.57;0.57;;;;;;;6.11;87.33;95674.19;29395;215;63005;-70
2023/12/22 02:34:55;;;;;;;0.60;0.60;;;;;;;6.13;86.99;95670.09;29395;204;63009;-56
2023/12/22 02:35:29;;;;;;;0.60;0.60;;;;;;;6.14;87.99;95665.50;29395;202;63005;-58
2023/12/22 02:36:06;;;;;;;0.60;0.60;;;;;;;6.14;86.83;95673.59;29395;198;63026;-58
2023/12/22 02:36:40;;;;;;;0.60;0.60;;;;;;;6.12;86.57;95652.34;29395;223;63009;-56
2023/12/22 02:37:12;;;;;;;0.70;0.70;;;;;;;6.10;87.03;95665.28;29394;232;64013;-55
2023/12/22 02:37:46;;;;;;;0.60;0.60;;;;;;;6.10;87.03;95676.06;29394;217;64004;-62
2023/12/22 02:38:19;;;;;;;0.70;0.70;;;;;;;6.10;87.35;95686.03;29394;198;64009;-55